Time;durP1;ratioP1;P1;durP2;ratioP2;P2;SDS_P1;SDS_P2;PMS_P1;PMS_P2;Temp;Humidity;BMP_temperature;BMP_pressure;BME280_temperature;BME280_humidity;BME280_pressure;Samples;Min_cycle;Max_cycle;Signal;HPM_P1;HPM_P2
2022/06/09 00:00:57;;;;;;;;;;;;;17.98;96827.20;;;;108954;1267;41181;-66
2022/06/09 00:03:37;;;;;;;6.50;2.40;;;;;17.90;96827.40;;;;109057;1267;42505;-66
2022/06/09 00:06:09;;;;;;;6.10;2.30;;;;;17.90;96830.00;;;;108959;1268;41288;-66
2022/06/09 00:08:48;;;;;;;6.80;2.50;;;;;17.84;96832.00;;;;108912;1270;41624;-65
2022/06/09 00:11:23;;;;;;;5.70;2.50;;;;;17.80;96833.20;;;;108695;1270;41163;-66
2022/06/09 00:13:53;;;;;;;7.60;2.30;;;;;17.80;96829.80;;;;108862;1267;42044;-66
2022/06/09 00:16:24;;;;;;;5.70;2.40;;;;;17.80;96830.20;;;;108788;1268;41414;-67
2022/06/09 00:18:55;;;;;;;5.20;2.10;;;;;17.78;96829.60;;;;108892;1267;41740;-65
2022/06/09 00:21:26;;;;;;;5.20;2.10;;;;;17.70;96825.40;;;;108850;1267;41218;-66
2022/06/09 00:23:57;;;;;;;6.00;2.50;;;;;17.70;96823.80;;;;108762;1267;41784;-65
2022/06/09 00:26:27;;;;;;;5.30;2.40;;;;;17.66;96819.40;;;;108905;1267;41223;-65
2022/06/09 00:28:58;;;;;;;5.20;2.00;;;;;17.60;96820.80;;;;108856;1267;41973;-65
2022/06/09 00:31:28;;;;;;;7.90;2.40;;;;;17.60;96819.40;;;;108815;1267;41428;-64
2022/06/09 00:33:59;;;;;;;4.90;2.30;;;;;17.60;96820.20;;;;108787;1267;41278;-66
2022/06/09 00:36:29;;;;;;;5.80;2.60;;;;;17.60;96819.80;;;;108841;1267;41703;-66
2022/06/09 00:39:00;;;;;;;4.50;2.20;;;;;17.60;96816.40;;;;108902;1267;41615;-65
2022/06/09 00:41:37;;;;;;;5.30;2.40;;;;;17.60;96815.60;;;;108784;1268;41163;-65
2022/06/09 00:44:13;;;;;;;5.50;2.50;;;;;17.60;96812.60;;;;108909;1267;41341;-65
2022/06/09 00:46:44;;;;;;;5.70;2.40;;;;;17.50;96812.20;;;;108867;1267;42322;-66
2022/06/09 00:49:25;;;;;;;5.20;2.30;;;;;17.50;96812.60;;;;108884;1267;41169;-65
2022/06/09 00:51:58;;;;;;;7.60;2.60;;;;;17.50;96810.40;;;;108791;1267;41181;-65
2022/06/09 00:54:31;;;;;;;4.80;2.30;;;;;17.46;96806.60;;;;108766;1270;41864;-64
2022/06/09 00:57:10;;;;;;;6.10;2.40;;;;;17.40;96807.20;;;;108873;1267;41322;-66
2022/06/09 00:59:46;;;;;;;8.10;2.50;;;;;17.40;96808.60;;;;108886;1267;41180;-66
2022/06/09 01:02:19;;;;;;;9.10;2.60;;;;;17.30;96811.80;;;;108920;1267;41176;-65
2022/06/09 01:04:51;;;;;;;7.50;3.30;;;;;17.26;96809.00;;;;108915;1267;41459;-65
2022/06/09 01:07:27;;;;;;;8.70;3.60;;;;;17.10;96804.20;;;;108882;1270;41655;-64
2022/06/09 01:09:58;;;;;;;11.90;4.10;;;;;16.84;96805.40;;;;109022;1266;41152;-65
2022/06/09 01:12:39;;;;;;;11.00;4.20;;;;;16.70;96803.60;;;;108809;1267;41284;-65
2022/06/09 01:15:20;;;;;;;11.70;4.10;;;;;16.60;96804.00;;;;108954;1268;41297;-66
2022/06/09 01:18:38;;;;;;;10.90;4.00;;;;;16.50;96806.80;;;;108799;1270;41180;-65
2022/06/09 01:21:10;;;;;;;8.60;3.10;;;;;16.48;96808.80;;;;108470;1275;41191;-66
2022/06/09 01:23:43;;;;;;;;;;;;;16.36;96803.40;;;;108499;1274;41571;-66
2022/06/09 01:26:19;;;;;;;8.90;3.40;;;;;16.30;96803.40;;;;108756;1268;41237;-66
2022/06/09 01:29:02;;;;;;;9.80;3.20;;;;;16.20;96805.80;;;;108870;1267;43158;-66
2022/06/09 01:31:36;;;;;;;7.30;3.40;;;;;16.20;96802.00;;;;108774;1268;41158;-66
2022/06/09 01:34:29;;;;;;;8.50;3.00;;;;;16.20;96805.80;;;;108826;1267;41159;-66
2022/06/09 01:37:10;;;;;;;7.20;2.90;;;;;16.18;96807.60;;;;108920;1267;41893;-66
2022/06/09 01:39:49;;;;;;;5.30;2.60;;;;;16.18;96810.20;;;;108888;1267;41163;-66
2022/06/09 01:42:25;;;;;;;6.00;2.50;;;;;16.20;96813.40;;;;109069;1267;42426;-66
2022/06/09 01:45:03;;;;;;;7.20;3.10;;;;;16.20;96809.60;;;;108932;1267;41728;-66
2022/06/09 01:48:00;;;;;;;8.40;2.80;;;;;16.20;96805.40;;;;108944;1266;41182;-65
2022/06/09 01:50:38;;;;;;;8.10;3.30;;;;;16.20;96809.80;;;;108964;1266;41928;-65
2022/06/09 01:53:31;;;;;;;10.10;3.70;;;;;16.26;96805.40;;;;108828;1267;41210;-67
2022/06/09 01:56:10;;;;;;;9.80;3.80;;;;;16.30;96808.60;;;;108809;1267;41267;-66
2022/06/09 01:58:55;;;;;;;7.70;2.80;;;;;16.24;96812.40;;;;108814;1269;41195;-65
2022/06/09 02:01:49;;;;;;;9.60;2.90;;;;;16.20;96811.80;;;;108839;1268;41685;-65
2022/06/09 02:04:28;;;;;;;6.10;2.40;;;;;16.10;96815.40;;;;108891;1267;41297;-65
2022/06/09 02:07:02;;;;;;;7.40;2.80;;;;;16.10;96812.00;;;;108955;1267;41634;-66
2022/06/09 02:09:35;;;;;;;6.60;2.60;;;;;16.00;96814.20;;;;108819;1267;41160;-65
2022/06/09 02:12:12;;;;;;;6.10;2.50;;;;;15.96;96814.00;;;;108912;1267;41221;-65
2022/06/09 02:14:49;;;;;;;5.40;2.60;;;;;15.90;96817.20;;;;108795;1267;41410;-65
2022/06/09 02:17:20;;;;;;;6.10;2.40;;;;;15.90;96814.00;;;;108854;1267;42651;-65
2022/06/09 02:19:52;;;;;;;6.40;2.50;;;;;15.90;96815.80;;;;108887;1268;42251;-66
2022/06/09 02:22:21;;;;;;;6.90;2.80;;;;;15.82;96817.40;;;;108945;1267;42398;-65
2022/06/09 02:24:53;;;;;;;7.20;2.80;;;;;15.80;96814.80;;;;108896;1267;41710;-66
2022/06/09 02:27:24;;;;;;;4.90;2.40;;;;;15.80;96815.60;;;;108909;1267;41623;-65
2022/06/09 02:29:54;;;;;;;6.70;2.30;;;;;15.80;96822.00;;;;109012;1267;41179;-66
2022/06/09 02:32:25;;;;;;;;;;;;;15.80;96819.20;;;;108853;1267;41291;-66
2022/06/09 02:34:55;;;;;;;6.50;2.20;;;;;15.70;96813.60;;;;108755;1267;42304;-65
2022/06/09 02:37:26;;;;;;;5.70;2.70;;;;;15.70;96811.20;;;;108809;1269;41178;-66
2022/06/09 02:39:56;;;;;;;7.40;3.10;;;;;15.70;96810.60;;;;108888;1267;41163;-66
2022/06/09 02:42:26;;;;;;;7.50;2.80;;;;;15.60;96814.60;;;;109077;1265;41612;-65
2022/06/09 02:44:56;;;;;;;6.50;2.70;;;;;15.60;96810.00;;;;108985;1267;41749;-67
2022/06/09 02:47:27;;;;;;;;;;;;;15.60;96808.80;;;;108914;1267;41222;-66
2022/06/09 02:49:57;;;;;;;6.60;2.50;;;;;15.58;96813.40;;;;109003;1267;41918;-65
2022/06/09 02:52:28;;;;;;;4.70;2.10;;;;;15.56;96810.60;;;;108868;1267;41276;-63
2022/06/09 02:54:58;;;;;;;5.10;2.30;;;;;15.56;96804.00;;;;108758;1267;41182;-66
2022/06/09 02:57:29;;;;;;;3.90;2.00;;;;;15.58;96800.40;;;;108809;1267;41162;-66
2022/06/09 02:59:58;;;;;;;;;;;;;15.60;96798.20;;;;108761;1267;41521;-66
2022/06/09 03:02:28;;;;;;;6.20;2.60;;;;;15.58;96802.60;;;;108868;1267;41165;-65
2022/06/09 03:04:59;;;;;;;7.70;3.00;;;;;15.60;96801.00;;;;108654;1267;41665;-65
2022/06/09 03:07:30;;;;;;;6.00;2.60;;;;;15.66;96798.20;;;;108870;1267;41996;-65
2022/06/09 03:10:00;;;;;;;7.40;3.00;;;;;15.68;96797.80;;;;108749;1268;41195;-65
2022/06/09 03:12:30;;;;;;;7.60;2.90;;;;;15.70;96801.00;;;;108909;1267;41178;-66
2022/06/09 03:15:00;;;;;;;5.10;2.40;;;;;15.70;96805.80;;;;108907;1267;41177;-64
2022/06/09 03:17:31;;;;;;;6.20;2.30;;;;;15.70;96802.40;;;;108791;1267;42216;-64
2022/06/09 03:20:02;;;;;;;4.10;2.00;;;;;15.70;96797.20;;;;108849;1267;41181;-65
2022/06/09 03:22:32;;;;;;;7.80;2.60;;;;;15.74;96799.40;;;;108982;1267;41487;-65
2022/06/09 03:25:03;;;;;;;5.70;2.50;;;;;15.80;96802.00;;;;108973;1267;41263;-66
2022/06/09 03:27:34;;;;;;;7.00;2.20;;;;;15.80;96805.60;;;;108690;1270;41198;-64
2022/06/09 03:30:04;;;;;;;6.50;2.20;;;;;15.80;96804.60;;;;108768;1270;41207;-65
2022/06/09 03:32:34;;;;;;;5.60;2.40;;;;;15.90;96810.80;;;;108930;1266;41160;-66
2022/06/09 03:35:06;;;;;;;6.10;2.60;;;;;15.90;96813.20;;;;108950;1267;41293;-66
2022/06/09 03:37:36;;;;;;;6.90;2.60;;;;;16.00;96814.40;;;;108794;1267;41168;-66
2022/06/09 03:40:09;;;;;;;7.80;2.70;;;;;16.02;96816.40;;;;108960;1266;41166;-66
2022/06/09 03:42:38;;;;;;;5.60;2.50;;;;;16.10;96814.40;;;;108756;1268;41991;-66
2022/06/09 03:45:09;;;;;;;6.50;2.80;;;;;16.20;96812.80;;;;108937;1267;41171;-65
2022/06/09 03:47:39;;;;;;;6.60;2.60;;;;;16.30;96810.60;;;;108993;1267;41393;-65
2022/06/09 03:50:15;;;;;;;5.10;2.40;;;;;16.40;96810.20;;;;108832;1267;42197;-65
2022/06/09 03:52:44;;;;;;;5.80;2.50;;;;;16.54;96803.60;;;;108868;1267;42073;-65
2022/06/09 03:55:15;;;;;;;5.70;2.20;;;;;16.60;96806.60;;;;108807;1267;41201;-65
2022/06/09 03:57:46;;;;;;;6.00;2.50;;;;;16.70;96803.00;;;;108708;1267;41247;-65
2022/06/09 04:00:19;;;;;;;11.20;4.40;;;;;16.80;96804.20;;;;108877;1267;42400;-65
2022/06/09 04:02:49;;;;;;;11.50;4.20;;;;;16.90;96799.20;;;;108870;1267;41178;-64
2022/06/09 04:05:18;;;;;;;11.70;3.80;;;;;16.90;96799.80;;;;108976;1267;41288;-66
2022/06/09 04:07:48;;;;;;;9.20;4.00;;;;;16.90;96799.20;;;;108696;1268;41251;-66
2022/06/09 04:10:25;;;;;;;7.90;3.60;;;;;17.00;96799.00;;;;108818;1267;42431;-65
2022/06/09 04:12:54;;;;;;;10.10;3.60;;;;;17.10;96797.40;;;;108930;1267;41290;-66
2022/06/09 04:15:24;;;;;;;9.40;3.60;;;;;17.20;96797.20;;;;108831;1267;41660;-65
2022/06/09 04:17:54;;;;;;;9.50;3.60;;;;;17.40;96796.80;;;;108770;1267;41183;-67
2022/06/09 04:20:26;;;;;;;8.70;3.70;;;;;17.98;96782.00;;;;108780;1267;41343;-65
2022/06/09 04:22:55;;;;;;;9.80;3.30;;;;;19.18;96774.80;;;;108747;1267;41184;-65
2022/06/09 04:25:26;;;;;;;8.30;3.20;;;;;20.36;96774.80;;;;108866;1267;41230;-66
2022/06/09 04:27:55;;;;;;;6.50;2.70;;;;;21.20;96772.40;;;;108869;1267;42203;-65
2022/06/09 04:30:25;;;;;;;7.80;2.80;;;;;22.04;96769.00;;;;108902;1267;41153;-66
2022/06/09 04:32:55;;;;;;;6.40;2.70;;;;;22.92;96765.60;;;;108920;1267;41187;-65
2022/06/09 04:35:25;;;;;;;6.60;2.80;;;;;23.72;96760.20;;;;108813;1270;41576;-66
2022/06/09 04:38:01;;;;;;;6.20;2.70;;;;;24.40;96757.00;;;;108885;1267;41222;-64
2022/06/09 04:40:35;;;;;;;8.10;2.60;;;;;25.12;96755.00;;;;108834;1267;41289;-65
2022/06/09 04:43:07;;;;;;;9.70;2.70;;;;;25.80;96757.20;;;;108722;1269;41416;-65
2022/06/09 04:45:39;;;;;;;7.80;3.20;;;;;26.30;96753.40;;;;108923;1267;41245;-66
2022/06/09 04:48:10;;;;;;;9.00;3.00;;;;;26.32;96750.60;;;;109050;1267;42207;-66
2022/06/09 04:50:40;;;;;;;6.00;2.70;;;;;26.56;96751.00;;;;108853;1267;41674;-66
2022/06/09 04:53:10;;;;;;;5.80;2.70;;;;;26.80;96749.00;;;;108906;1267;41326;-65
2022/06/09 04:55:40;;;;;;;6.70;2.70;;;;;27.30;96749.00;;;;108959;1267;41281;-66
2022/06/09 04:58:10;;;;;;;4.80;2.30;;;;;27.70;96742.60;;;;108991;1267;41647;-65
2022/06/09 05:00:39;;;;;;;5.40;2.40;;;;;28.10;96741.60;;;;108907;1267;41166;-65
2022/06/09 05:03:11;;;;;;;7.10;2.40;;;;;28.50;96743.00;;;;108907;1266;42391;-66
2022/06/09 05:05:43;;;;;;;6.10;2.30;;;;;28.96;96739.40;;;;108920;1267;41223;-65
2022/06/09 05:08:13;;;;;;;6.20;2.60;;;;;29.32;96740.20;;;;108917;1267;41656;-65
2022/06/09 05:10:44;;;;;;;5.80;2.50;;;;;29.36;96741.00;;;;108845;1267;41642;-66
2022/06/09 05:13:14;;;;;;;5.00;2.30;;;;;29.70;96739.40;;;;108942;1267;41629;-65
2022/06/09 05:15:49;;;;;;;;;;;;;30.10;96744.00;;;;108924;1267;41837;-65
2022/06/09 05:18:25;;;;;;;6.50;2.30;;;;;30.42;96738.00;;;;108834;1267;41276;-66
2022/06/09 05:20:56;;;;;;;5.80;2.30;;;;;30.20;96742.60;;;;108793;1269;41646;-66
2022/06/09 05:23:26;;;;;;;7.30;2.20;;;;;30.18;96741.80;;;;108900;1267;41632;-66
2022/06/09 05:25:58;;;;;;;6.80;2.50;;;;;30.26;96737.20;;;;108925;1267;41632;-66
2022/06/09 05:28:28;;;;;;;4.70;2.00;;;;;29.08;96762.00;;;;108928;1267;41282;-66
2022/06/09 05:30:57;;;;;;;;;;;;;28.08;96771.20;;;;108944;1267;41166;-66
2022/06/09 05:33:27;;;;;;;6.70;2.30;;;;;26.98;96781.20;;;;108885;1266;41830;-66
2022/06/09 05:35:58;;;;;;;7.10;2.30;;;;;25.86;96785.40;;;;108923;1267;41177;-66
2022/06/09 05:46:58;;;;;;;7.40;2.60;;;;;23.88;96799.20;;;;108953;1267;41176;-65
2022/06/09 05:49:30;;;;;;;5.20;2.20;;;;;23.62;96791.20;;;;108912;1267;41775;-65
2022/06/09 05:52:00;;;;;;;7.50;2.30;;;;;23.88;96790.60;;;;108789;1267;42090;-66
2022/06/09 05:54:39;;;;;;;8.00;2.60;;;;;24.80;96772.80;;;;108757;1268;41176;-66
2022/06/09 05:57:15;;;;;;;7.00;2.60;;;;;26.08;96766.40;;;;108934;1266;41970;-66
2022/06/09 05:59:45;;;;;;;8.50;2.70;;;;;27.08;96762.80;;;;108909;1265;41401;-65
2022/06/09 06:02:15;;;;;;;8.00;2.40;;;;;27.90;96763.40;;;;108839;1269;41285;-65
2022/06/09 06:04:45;;;;;;;8.30;2.40;;;;;28.50;96757.80;;;;108927;1267;41877;-66
2022/06/09 06:07:14;;;;;;;6.90;2.40;;;;;28.60;96757.00;;;;108889;1267;41974;-67
2022/06/09 06:09:44;;;;;;;6.80;2.40;;;;;28.62;96758.00;;;;108883;1267;41197;-67
2022/06/09 06:12:13;;;;;;;7.20;2.30;;;;;28.60;96754.40;;;;108990;1267;41184;-67
2022/06/09 06:14:42;;;;;;;5.20;2.10;;;;;28.46;96757.80;;;;108948;1267;41175;-66
2022/06/09 06:17:12;;;;;;;6.20;2.60;;;;;28.70;96757.60;;;;108835;1268;41195;-67
2022/06/09 06:19:41;;;;;;;7.40;2.60;;;;;28.98;96760.20;;;;108819;1267;41164;-67
2022/06/09 06:22:11;;;;;;;6.00;2.30;;;;;28.92;96752.40;;;;108836;1267;41220;-67
2022/06/09 06:24:40;;;;;;;6.30;2.10;;;;;29.20;96751.00;;;;108908;1266;41747;-67
2022/06/09 06:27:09;;;;;;;4.60;1.90;;;;;29.90;96753.60;;;;108868;1267;41572;-67
2022/06/09 06:29:59;;;;;;;7.70;2.40;;;;;30.68;96753.80;;;;108550;1267;41173;-67
2022/06/09 06:32:28;;;;;;;4.30;1.80;;;;;30.26;96759.00;;;;108858;1268;42867;-66
2022/06/09 06:34:57;;;;;;;5.40;2.10;;;;;30.64;96757.80;;;;108917;1267;41184;-68
2022/06/09 06:37:26;;;;;;;5.80;2.20;;;;;31.00;96759.40;;;;108838;1267;41035;-66
2022/06/09 06:39:56;;;;;;;10.10;2.20;;;;;30.80;96754.60;;;;108863;1267;41290;-67
2022/06/09 06:42:25;;;;;;;5.40;1.90;;;;;30.34;96756.80;;;;108854;1266;41282;-67
2022/06/09 06:44:54;;;;;;;5.40;2.10;;;;;30.74;96755.20;;;;108887;1267;41384;-68
2022/06/09 06:47:24;;;;;;;5.10;2.00;;;;;31.56;96755.20;;;;109076;1267;41193;-67
2022/06/09 06:49:53;;;;;;;6.30;2.10;;;;;32.10;96761.40;;;;108803;1267;41160;-67
2022/06/09 06:52:23;;;;;;;5.40;2.20;;;;;31.92;96758.20;;;;109159;1267;41610;-68
2022/06/09 06:54:52;;;;;;;8.40;2.40;;;;;30.76;96767.20;;;;108994;1267;42422;-67
2022/06/09 06:57:21;;;;;;;8.20;2.50;;;;;31.16;96762.40;;;;108885;1267;41206;-67
2022/06/09 06:59:51;;;;;;;4.60;1.80;;;;;30.50;96761.80;;;;109012;1267;41688;-68
2022/06/09 07:02:20;;;;;;;7.10;2.20;;;;;29.90;96761.60;;;;109176;1267;41655;-67
2022/06/09 07:05:02;;;;;;;4.60;1.90;;;;;29.64;96761.20;;;;109031;1267;41730;-68
2022/06/09 07:07:32;;;;;;;4.90;1.90;;;;;29.80;96761.60;;;;108744;1267;41184;-68
2022/06/09 07:10:03;;;;;;;6.10;2.20;;;;;29.18;96761.00;;;;108911;1268;41632;-67
2022/06/09 07:12:33;;;;;;;6.70;1.80;;;;;29.12;96760.60;;;;108984;1267;41148;-67
2022/06/09 07:15:03;;;;;;;4.40;1.90;;;;;29.00;96761.20;;;;108853;1267;41545;-69
2022/06/09 07:17:32;;;;;;;;;;;;;28.58;96767.20;;;;108984;1267;42318;-68
2022/06/09 07:20:03;;;;;;;5.00;1.90;;;;;28.38;96763.60;;;;108872;1267;41285;-68
2022/06/09 07:22:33;;;;;;;;;;;;;27.90;96764.20;;;;108847;1267;41236;-68
2022/06/09 07:25:05;;;;;;;7.10;2.40;;;;;27.16;96769.40;;;;108832;1267;41633;-67
2022/06/09 07:27:34;;;;;;;4.90;2.10;;;;;26.74;96771.40;;;;108998;1267;41298;-67
2022/06/09 07:30:05;;;;;;;5.00;2.10;;;;;26.60;96770.20;;;;108980;1267;41868;-67
2022/06/09 07:32:35;;;;;;;6.20;2.20;;;;;26.50;96771.20;;;;108960;1267;41166;-66
2022/06/09 07:35:06;;;;;;;4.10;1.80;;;;;26.60;96770.80;;;;108849;1267;41189;-68
2022/06/09 07:37:36;;;;;;;5.40;1.90;;;;;26.80;96766.40;;;;108887;1267;42276;-67
2022/06/09 07:40:07;;;;;;;8.40;2.00;;;;;27.10;96760.00;;;;109018;1267;41208;-68
2022/06/09 07:42:36;;;;;;;5.20;2.10;;;;;27.10;96761.40;;;;109044;1267;41200;-67
2022/06/09 07:45:09;;;;;;;5.00;1.80;;;;;26.78;96763.20;;;;108892;1267;41291;-68
2022/06/09 07:47:39;;;;;;;3.20;1.60;;;;;26.90;96758.60;;;;108972;1266;42054;-68
2022/06/09 07:50:10;;;;;;;4.90;1.90;;;;;26.88;96747.40;;;;108936;1266;41755;-67
2022/06/09 07:52:46;;;;;;;7.20;1.80;;;;;26.76;96753.40;;;;108902;1267;41281;-68
2022/06/09 07:55:17;;;;;;;4.80;1.90;;;;;26.70;96753.80;;;;108787;1267;41284;-68
2022/06/09 07:57:46;;;;;;;3.70;1.80;;;;;26.70;96749.40;;;;108950;1267;41230;-67
2022/06/09 08:00:16;;;;;;;4.90;1.80;;;;;26.90;96742.00;;;;108846;1268;41156;-67
2022/06/09 08:02:46;;;;;;;7.40;2.00;;;;;27.08;96745.60;;;;108858;1268;41166;-67
2022/06/09 08:05:18;;;;;;;4.30;2.00;;;;;27.08;96745.20;;;;108870;1266;41460;-67
2022/06/09 08:07:48;;;;;;;6.40;2.00;;;;;27.00;96745.80;;;;108927;1267;41182;-66
2022/06/09 08:10:22;;;;;;;6.50;2.40;;;;;26.86;96744.20;;;;108919;1269;41630;-67
2022/06/09 08:12:55;;;;;;;5.50;1.90;;;;;27.00;96744.60;;;;108829;1267;41609;-68
2022/06/09 08:15:25;;;;;;;6.40;2.00;;;;;27.16;96750.20;;;;108860;1267;41462;-65
2022/06/09 08:17:56;;;;;;;5.10;1.70;;;;;27.16;96749.60;;;;108781;1270;41219;-66
2022/06/09 08:20:29;;;;;;;7.70;1.80;;;;;27.18;96743.60;;;;108931;1267;41172;-68
2022/06/09 08:23:19;;;;;;;11.70;2.00;;;;;26.94;96744.00;;;;108806;1267;42407;-68
2022/06/09 08:25:49;;;;;;;5.70;2.00;;;;;26.70;96746.20;;;;108913;1267;41297;-67
2022/06/09 08:28:20;;;;;;;11.00;2.00;;;;;27.20;96739.60;;;;108810;1267;41185;-65
2022/06/09 08:30:52;;;;;;;6.50;1.80;;;;;27.00;96739.60;;;;108838;1267;42083;-67
2022/06/09 08:33:23;;;;;;;6.70;1.80;;;;;27.14;96742.20;;;;108910;1267;41166;-66
2022/06/09 08:35:54;;;;;;;5.70;1.60;;;;;27.38;96744.00;;;;108824;1268;41874;-65
2022/06/09 08:38:26;;;;;;;7.30;1.90;;;;;27.48;96732.00;;;;108879;1267;41279;-66
2022/06/09 08:41:13;;;;;;;6.30;1.80;;;;;27.66;96727.00;;;;108982;1267;41223;-65
2022/06/09 08:43:49;;;;;;;6.30;1.90;;;;;27.72;96730.00;;;;108845;1267;41182;-68
2022/06/09 08:46:53;;;;;;;4.10;1.60;;;;;27.82;96726.40;;;;108769;1267;41169;-66
2022/06/09 08:49:28;;;;;;;3.00;1.50;;;;;27.44;96729.40;;;;108736;1270;41408;-67
2022/06/09 08:52:03;;;;;;;4.60;1.70;;;;;27.76;96720.00;;;;108735;1268;41181;-67
2022/06/09 08:54:35;;;;;;;6.90;2.10;;;;;27.66;96720.00;;;;108872;1267;41297;-66
2022/06/09 08:57:13;;;;;;;7.00;1.90;;;;;27.14;96720.60;;;;108723;1270;41304;-66
2022/06/09 08:59:43;;;;;;;5.00;1.70;;;;;27.02;96725.80;;;;108685;1270;41638;-67
2022/06/09 09:02:20;;;;;;;6.90;1.80;;;;;27.46;96718.60;;;;108723;1268;42435;-66
2022/06/09 09:04:54;;;;;;;6.60;1.90;;;;;27.26;96719.20;;;;108886;1269;41637;-66
2022/06/09 09:07:29;;;;;;;4.50;1.90;;;;;27.58;96724.00;;;;108652;1270;41964;-67
2022/06/09 09:10:31;;;;;;;6.80;2.20;;;;;27.90;96721.80;;;;108720;1270;41651;-68
2022/06/09 09:13:27;;;;;;;7.30;1.90;;;;;27.76;96717.20;;;;108842;1272;41189;-67
2022/06/09 09:16:03;;;;;;;7.10;1.90;;;;;27.40;96731.80;;;;108807;1269;41638;-68
2022/06/09 09:19:05;;;;;;;4.80;1.90;;;;;27.10;96734.80;;;;108711;1270;41162;-66
2022/06/09 09:21:51;;;;;;;5.50;1.80;;;;;27.06;96734.00;;;;108437;1273;41305;-68
2022/06/09 09:24:39;;;;;;;3.50;1.50;;;;;26.92;96729.40;;;;108236;1274;41661;-68
2022/06/09 09:27:18;;;;;;;5.80;1.80;;;;;27.30;96724.40;;;;108410;1273;41474;-68
2022/06/09 09:30:03;;;;;;;5.50;1.90;;;;;27.26;96721.20;;;;108436;1274;41233;-68
2022/06/09 09:32:45;;;;;;;8.50;1.80;;;;;27.54;96719.20;;;;108336;1276;42303;-67
2022/06/09 09:35:19;;;;;;;5.30;1.50;;;;;28.26;96709.00;;;;108396;1273;41401;-67
2022/06/09 09:37:52;;;;;;;4.60;1.80;;;;;28.72;96707.80;;;;108479;1274;41178;-68
2022/06/09 09:40:28;;;;;;;3.50;1.60;;;;;29.22;96703.40;;;;108453;1273;41206;-68
2022/06/09 09:43:01;;;;;;;5.00;1.60;;;;;30.02;96698.40;;;;108416;1274;41247;-68
2022/06/09 09:45:43;;;;;;;6.60;1.80;;;;;30.26;96703.20;;;;108447;1273;41359;-67
2022/06/09 09:48:18;;;;;;;5.90;2.00;;;;;30.18;96709.40;;;;108427;1273;41476;-67
2022/06/09 09:50:56;;;;;;;4.20;1.80;;;;;30.12;96708.60;;;;108446;1273;41174;-68
2022/06/09 09:53:34;;;;;;;9.30;2.00;;;;;29.54;96700.80;;;;108516;1276;41211;-67
2022/06/09 09:56:15;;;;;;;4.80;1.90;;;;;29.70;96694.00;;;;108523;1273;41224;-68
2022/06/09 09:58:48;;;;;;;5.70;2.00;;;;;29.50;96695.80;;;;108606;1267;41192;-68
2022/06/09 10:08:35;;;;;;;6.50;2.20;;;;;30.08;96689.00;;;;108921;1268;41754;-68
2022/06/09 10:14:53;;;;;;;4.90;1.70;;;;;30.78;96671.80;;;;108765;1268;41215;-68
2022/06/09 10:17:46;;;;;;;5.00;2.00;;;;;30.70;96678.20;;;;108460;1273;41229;-68
2022/06/09 10:20:41;;;;;;;4.90;1.80;;;;;30.62;96674.20;;;;108850;1268;41294;-68
2022/06/09 10:23:10;;;;;;;10.20;1.90;;;;;30.30;96672.40;;;;108803;1268;41523;-68
2022/06/09 10:25:45;;;;;;;7.80;2.00;;;;;30.34;96675.80;;;;108852;1267;41692;-67
2022/06/09 10:28:20;;;;;;;4.20;1.80;;;;;29.92;96677.00;;;;108950;1267;41181;-67
2022/06/09 10:30:58;;;;;;;7.20;2.00;;;;;30.02;96674.40;;;;108826;1267;41188;-68
2022/06/09 10:33:38;;;;;;;5.10;1.90;;;;;29.30;96679.40;;;;108806;1267;41172;-67
2022/06/09 10:36:37;;;;;;;12.10;2.40;;;;;28.80;96672.20;;;;108857;1267;41183;-68
2022/06/09 10:39:16;;;;;;;5.10;2.00;;;;;29.32;96671.80;;;;108859;1267;41171;-68
2022/06/09 10:41:50;;;;;;;5.30;1.80;;;;;30.00;96675.20;;;;108892;1268;41170;-69
2022/06/09 10:44:28;;;;;;;4.40;1.80;;;;;29.88;96663.20;;;;108901;1267;41178;-69
2022/06/09 10:56:40;;;;;;;4.80;1.80;;;;;31.32;96652.20;;;;109083;1268;41217;-69
2022/06/09 10:59:29;;;;;;;5.80;1.80;;;;;31.40;96647.60;;;;109040;1267;42296;-68
2022/06/09 11:01:57;;;;;;;4.70;1.70;;;;;31.64;96645.20;;;;109036;1267;41153;-67
2022/06/09 11:04:32;;;;;;;9.10;1.80;;;;;31.60;96636.20;;;;108986;1268;41975;-67
2022/06/09 11:07:26;;;;;;;7.30;2.00;;;;;31.94;96642.80;;;;108991;1268;41266;-70
2022/06/09 11:10:13;;;;;;;5.80;1.70;;;;;32.88;96634.80;;;;109152;1267;40792;-68
2022/06/09 11:12:58;;;;;;;4.00;1.70;;;;;33.18;96624.60;;;;109096;1267;41174;-69
2022/06/09 11:15:34;;;;;;;5.30;2.00;;;;;33.68;96625.60;;;;108834;1267;41235;-70
2022/06/09 11:18:25;;;;;;;5.90;1.70;;;;;33.82;96620.20;;;;108790;1267;41150;-69
2022/06/09 11:21:03;;;;;;;8.20;1.90;;;;;34.80;96615.40;;;;108880;1267;42153;-68
2022/06/09 11:23:53;;;;;;;6.40;1.90;;;;;34.64;96625.80;;;;109096;1267;41301;-70
2022/06/09 11:26:42;;;;;;;6.00;1.80;;;;;32.98;96634.60;;;;108934;1267;41175;-69
2022/06/09 11:29:43;;;;;;;5.50;1.80;;;;;32.60;96640.80;;;;109036;1268;41175;-69
2022/06/09 11:32:50;;;;;;;6.50;1.70;;;;;32.46;96633.40;;;;108971;1268;42161;-69
2022/06/09 11:35:38;;;;;;;5.40;2.10;;;;;33.04;96634.60;;;;108831;1268;41153;-68
2022/06/09 11:38:29;;;;;;;3.80;1.60;;;;;33.20;96622.80;;;;109034;1267;40915;-70
2022/06/09 11:41:26;;;;;;;4.10;1.60;;;;;32.94;96620.20;;;;108843;1267;42350;-68
2022/06/09 11:44:35;;;;;;;5.90;1.70;;;;;32.26;96616.60;;;;108948;1267;41755;-69
2022/06/09 11:47:13;;;;;;;5.70;2.00;;;;;33.00;96617.00;;;;108858;1267;41330;-68
2022/06/09 11:49:49;;;;;;;7.40;1.90;;;;;33.40;96612.40;;;;108990;1268;41458;-68
2022/06/09 11:52:39;;;;;;;7.10;1.70;;;;;33.68;96616.00;;;;108897;1270;41285;-69
2022/06/09 11:58:33;;;;;;;6.80;1.90;;;;;34.80;96606.20;;;;109018;1267;41429;-69
2022/06/09 12:01:27;;;;;;;4.90;1.60;;;;;35.02;96608.40;;;;108894;1266;41185;-69
2022/06/09 12:04:04;;;;;;;5.70;1.60;;;;;34.16;96602.00;;;;108998;1267;41748;-69
2022/06/09 12:06:55;;;;;;;6.80;2.10;;;;;34.30;96608.20;;;;109025;1267;42230;-69
2022/06/09 12:09:55;;;;;;;7.20;1.70;;;;;30.82;96610.40;;;;109080;1265;41282;-69
2022/06/09 12:12:34;;;;;;;5.20;1.70;;;;;32.10;96615.40;;;;109023;1267;42252;-69
2022/06/09 12:15:29;;;;;;;5.50;2.00;;;;;31.20;96609.80;;;;109081;1267;41194;-67
2022/06/09 12:18:23;;;;;;;5.20;2.10;;;;;30.36;96608.80;;;;108979;1268;41155;-69
2022/06/09 12:20:54;;;;;;;6.80;2.10;;;;;30.22;96613.00;;;;109038;1267;41178;-68
2022/06/09 12:23:37;;;;;;;5.90;2.20;;;;;29.62;96607.80;;;;108974;1267;41175;-68
2022/06/09 12:26:09;;;;;;;8.70;3.10;;;;;29.74;96600.80;;;;108884;1267;42061;-67
2022/06/09 12:28:45;;;;;;;5.60;2.10;;;;;29.40;96611.00;;;;108901;1267;41306;-69
2022/06/09 12:31:17;;;;;;;4.50;1.90;;;;;29.98;96610.60;;;;108885;1270;41196;-68
2022/06/09 12:33:52;;;;;;;4.50;1.80;;;;;29.40;96613.40;;;;109088;1267;41920;-68
2022/06/09 12:36:40;;;;;;;11.10;2.40;;;;;29.06;96616.60;;;;109059;1267;41148;-68
2022/06/09 12:39:22;;;;;;;4.20;1.90;;;;;28.80;96614.40;;;;108904;1268;41290;-67
2022/06/09 12:42:00;;;;;;;4.80;1.80;;;;;28.86;96616.80;;;;108892;1268;41282;-68
2022/06/09 12:44:32;;;;;;;6.60;2.00;;;;;29.08;96619.40;;;;108880;1267;41940;-67
2022/06/09 12:47:17;;;;;;;5.90;2.00;;;;;29.32;96618.20;;;;108796;1270;41403;-68
2022/06/09 12:49:53;;;;;;;5.80;1.90;;;;;29.52;96617.00;;;;108883;1267;41194;-68
2022/06/09 12:52:40;;;;;;;8.40;2.40;;;;;29.82;96608.80;;;;108800;1269;41792;-68
2022/06/09 12:55:18;;;;;;;20.00;2.60;;;;;30.10;96609.80;;;;109077;1267;41514;-68
2022/06/09 12:58:10;;;;;;;15.70;3.00;;;;;29.34;96608.60;;;;108907;1267;41185;-68
2022/06/09 13:00:55;;;;;;;5.20;1.70;;;;;28.20;96617.80;;;;109011;1266;41201;-67
2022/06/09 13:03:34;;;;;;;5.20;1.70;;;;;28.26;96617.80;;;;108953;1268;41629;-68
2022/06/09 13:06:24;;;;;;;3.30;1.50;;;;;27.98;96617.80;;;;108921;1269;41180;-69
2022/06/09 13:08:56;;;;;;;7.40;1.70;;;;;27.92;96620.20;;;;108792;1269;41178;-68
2022/06/09 13:14:30;;;;;;;3.90;1.70;;;;;28.20;96619.40;;;;108920;1267;41297;-71
2022/06/09 13:17:06;;;;;;;6.20;1.90;;;;;28.04;96622.60;;;;109111;1267;41165;-67
2022/06/09 13:19:37;;;;;;;4.90;1.80;;;;;28.10;96621.60;;;;108759;1269;41279;-67
2022/06/09 13:22:13;;;;;;;6.60;2.30;;;;;28.02;96624.80;;;;108985;1268;41502;-67
2022/06/09 13:24:42;;;;;;;7.90;2.20;;;;;27.30;96624.80;;;;109136;1268;41281;-68
2022/06/09 13:27:18;;;;;;;9.50;2.10;;;;;27.36;96633.60;;;;108736;1270;41515;-67